sensor_id;sensor_type;location;lat;lon;timestamp;temperature;humidity
54824;DHT22;40724;53.196;5.980;2023-02-01T11:23:04;6.40;99.90
54824;DHT22;40724;53.196;5.980;2023-02-01T11:25:32;7.10;99.90
54824;DHT22;40724;53.196;5.980;2023-02-01T11:28:01;7.10;99.90
54824;DHT22;40724;53.196;5.980;2023-02-01T11:30:33;7.10;99.90
54824;DHT22;40724;53.196;5.980;2023-02-01T11:33:00;7.10;99.90
54824;DHT22;40724;53.196;5.980;2023-02-01T11:35:28;7.20;99.90
54824;DHT22;40724;53.196;5.980;2023-02-01T11:37:58;7.20;99.90
54824;DHT22;40724;53.196;5.980;2023-02-01T11:40:36;7.20;99.90
54824;DHT22;40724;53.196;5.980;2023-02-01T11:43:51;7.20;99.90
54824;DHT22;40724;53.196;5.980;2023-02-01T11:46:17;7.20;99.90
54824;DHT22;40724;53.196;5.980;2023-02-01T11:48:47;7.30;99.90
54824;DHT22;40724;53.196;5.980;2023-02-01T11:57:20;7.40;99.90
54824;DHT22;40724;53.196;5.980;2023-02-01T12:05:59;7.40;99.90
54824;DHT22;40724;53.196;5.980;2023-02-01T12:50:11;7.90;99.90
54824;DHT22;40724;53.196;5.980;2023-02-01T12:52:52;8.00;99.90
54824;DHT22;40724;53.196;5.980;2023-02-01T12:55:49;8.00;99.90
54824;DHT22;40724;53.196;5.980;2023-02-01T12:58:21;8.00;99.90
54824;DHT22;40724;53.196;5.980;2023-02-01T13:01:00;8.00;99.90
54824;DHT22;40724;53.196;5.980;2023-02-01T13:06:26;8.00;99.90
54824;DHT22;40724;53.196;5.980;2023-02-01T13:09:05;8.00;99.90
54824;DHT22;40724;53.196;5.980;2023-02-01T13:11:38;8.00;99.90
54824;DHT22;40724;53.196;5.980;2023-02-01T13:16:44;7.90;99.90
54824;DHT22;40724;53.196;5.980;2023-02-01T13:22:05;7.90;99.90
54824;DHT22;40724;53.196;5.980;2023-02-01T13:24:54;7.80;99.90
54824;DHT22;40724;53.196;5.980;2023-02-01T13:27:21;7.90;99.90
54824;DHT22;40724;53.196;5.980;2023-02-01T13:29:57;7.80;99.90
54824;DHT22;40724;53.196;5.980;2023-02-01T13:40:49;7.80;99.90
54824;DHT22;40724;53.196;5.980;2023-02-01T13:43:28;7.80;99.90
54824;DHT22;40724;53.196;5.980;2023-02-01T13:45:57;7.80;99.90
54824;DHT22;40724;53.196;5.980;2023-02-01T13:48:36;7.80;99.90
54824;DHT22;40724;53.196;5.980;2023-02-01T13:51:04;7.80;99.90
54824;DHT22;40724;53.196;5.980;2023-02-01T13:53:32;7.80;99.90
54824;DHT22;40724;53.196;5.980;2023-02-01T13:56:10;7.80;99.90
54824;DHT22;40724;53.196;5.980;2023-02-01T13:58:39;7.80;99.90
54824;DHT22;40724;53.196;5.980;2023-02-01T14:03:57;7.90;99.90
54824;DHT22;40724;53.196;5.980;2023-02-01T14:11:48;7.90;99.90
54824;DHT22;40724;53.196;5.980;2023-02-01T14:16:44;7.90;99.90
54824;DHT22;40724;53.196;5.980;2023-02-01T14:19:32;7.80;99.90
54824;DHT22;40724;53.196;5.980;2023-02-01T14:21:58;7.80;99.90
54824;DHT22;40724;53.196;5.980;2023-02-01T14:24:36;7.80;99.90
54824;DHT22;40724;53.196;5.980;2023-02-01T14:29:39;7.80;99.90
54824;DHT22;40724;53.196;5.980;2023-02-01T14:34:35;7.80;99.90
54824;DHT22;40724;53.196;5.980;2023-02-01T14:37:31;7.80;99.90
54824;DHT22;40724;53.196;5.980;2023-02-01T14:42:46;7.80;99.90
54824;DHT22;40724;53.196;5.980;2023-02-01T14:47:54;7.80;99.90
54824;DHT22;40724;53.196;5.980;2023-02-01T14:55:45;7.80;99.90
54824;DHT22;40724;53.196;5.980;2023-02-01T15:01:23;7.80;99.90
54824;DHT22;40724;53.196;5.980;2023-02-01T15:04:12;7.80;99.90
54824;DHT22;40724;53.196;5.980;2023-02-01T15:06:58;7.80;99.90
54824;DHT22;40724;53.196;5.980;2023-02-01T15:14:39;7.80;99.90
54824;DHT22;40724;53.196;5.980;2023-02-01T15:17:25;7.80;99.90
54824;DHT22;40724;53.196;5.980;2023-02-01T15:22:41;7.70;99.90
54824;DHT22;40724;53.196;5.980;2023-02-01T15:25:27;7.70;99.90
54824;DHT22;40724;53.196;5.980;2023-02-01T15:27:53;7.70;99.90
54824;DHT22;40724;53.196;5.980;2023-02-01T15:30:25;7.70;99.90
54824;DHT22;40724;53.196;5.980;2023-02-01T15:33:03;7.70;99.90
54824;DHT22;40724;53.196;5.980;2023-02-01T15:35:41;7.60;99.90
54824;DHT22;40724;53.196;5.980;2023-02-01T15:43:26;7.60;99.90
54824;DHT22;40724;53.196;5.980;2023-02-01T15:45:56;7.60;99.90
54824;DHT22;40724;53.196;5.980;2023-02-01T15:48:24;7.50;99.90
54824;DHT22;40724;53.196;5.980;2023-02-01T15:50:53;7.50;99.90
54824;DHT22;40724;53.196;5.980;2023-02-01T15:53:23;7.50;99.90
54824;DHT22;40724;53.196;5.980;2023-02-01T15:55:55;7.40;99.90
54824;DHT22;40724;53.196;5.980;2023-02-01T15:58:23;7.40;99.90
54824;DHT22;40724;53.196;5.980;2023-02-01T16:01:02;7.40;99.90
54824;DHT22;40724;53.196;5.980;2023-02-01T16:06:02;7.40;99.90
54824;DHT22;40724;53.196;5.980;2023-02-01T16:08:30;7.40;99.90
54824;DHT22;40724;53.196;5.980;2023-02-01T16:13:35;7.30;99.90
54824;DHT22;40724;53.196;5.980;2023-02-01T16:16:01;7.30;99.90
54824;DHT22;40724;53.196;5.980;2023-02-01T16:18:27;7.30;99.90
54824;DHT22;40724;53.196;5.980;2023-02-01T16:20:53;7.30;99.90
54824;DHT22;40724;53.196;5.980;2023-02-01T16:23:19;7.20;99.90
54824;DHT22;40724;53.196;5.980;2023-02-01T16:25:46;7.20;99.90
54824;DHT22;40724;53.196;5.980;2023-02-01T16:28:12;7.20;99.90
54824;DHT22;40724;53.196;5.980;2023-02-01T16:30:38;7.20;99.90
54824;DHT22;40724;53.196;5.980;2023-02-01T16:33:17;7.20;99.90
54824;DHT22;40724;53.196;5.980;2023-02-01T16:35:46;7.20;99.90
54824;DHT22;40724;53.196;5.980;2023-02-01T16:38:14;7.20;99.90
54824;DHT22;40724;53.196;5.980;2023-02-01T16:40:44;7.20;99.90
54824;DHT22;40724;53.196;5.980;2023-02-01T16:43:20;7.20;99.90
54824;DHT22;40724;53.196;5.980;2023-02-01T16:45:48;7.20;99.90
54824;DHT22;40724;53.196;5.980;2023-02-01T16:50:47;7.20;99.90
54824;DHT22;40724;53.196;5.980;2023-02-01T16:53:16;7.20;99.90
54824;DHT22;40724;53.196;5.980;2023-02-01T16:55:42;7.20;99.90
54824;DHT22;40724;53.196;5.980;2023-02-01T16:58:09;7.20;99.90
54824;DHT22;40724;53.196;5.980;2023-02-01T17:00:35;7.20;99.90
54824;DHT22;40724;53.196;5.980;2023-02-01T17:03:03;7.10;99.90
54824;DHT22;40724;53.196;5.980;2023-02-01T17:05:33;7.10;99.90
54824;DHT22;40724;53.196;5.980;2023-02-01T17:08:02;7.10;99.90
54824;DHT22;40724;53.196;5.980;2023-02-01T17:10:30;7.10;99.90
54824;DHT22;40724;53.196;5.980;2023-02-01T17:12:56;7.00;99.90
54824;DHT22;40724;53.196;5.980;2023-02-01T17:15:28;7.00;99.90
54824;DHT22;40724;53.196;5.980;2023-02-01T17:17:56;7.00;99.90
54824;DHT22;40724;53.196;5.980;2023-02-01T17:20:24;7.00;99.90
54824;DHT22;40724;53.196;5.980;2023-02-01T17:22:52;6.90;99.90
54824;DHT22;40724;53.196;5.980;2023-02-01T17:25:19;6.90;99.90
54824;DHT22;40724;53.196;5.980;2023-02-01T17:27:47;6.90;99.90
54824;DHT22;40724;53.196;5.980;2023-02-01T17:30:14;6.90;99.90
54824;DHT22;40724;53.196;5.980;2023-02-01T17:32:40;6.90;99.90
54824;DHT22;40724;53.196;5.980;2023-02-01T17:35:27;6.90;99.90
54824;DHT22;40724;53.196;5.980;2023-02-01T17:37:53;6.90;99.90
54824;DHT22;40724;53.196;5.980;2023-02-01T17:40:19;6.90;99.90
54824;DHT22;40724;53.196;5.980;2023-02-01T17:42:45;6.90;99.90
54824;DHT22;40724;53.196;5.980;2023-02-01T17:45:37;6.90;99.90
54824;DHT22;40724;53.196;5.980;2023-02-01T17:48:06;6.90;99.90
54824;DHT22;40724;53.196;5.980;2023-02-01T17:50:37;6.80;99.90
54824;DHT22;40724;53.196;5.980;2023-02-01T17:53:04;6.90;99.90
54824;DHT22;40724;53.196;5.980;2023-02-01T17:55:36;6.90;99.90
54824;DHT22;40724;53.196;5.980;2023-02-01T17:58:02;6.90;99.90
54824;DHT22;40724;53.196;5.980;2023-02-01T18:00:28;6.90;99.90
54824;DHT22;40724;53.196;5.980;2023-02-01T18:27:43;6.80;99.90
54824;DHT22;40724;53.196;5.980;2023-02-01T18:30:09;6.80;99.90
54824;DHT22;40724;53.196;5.980;2023-02-01T18:32:35;6.80;99.90
54824;DHT22;40724;53.196;5.980;2023-02-01T18:35:01;6.70;99.90
54824;DHT22;40724;53.196;5.980;2023-02-01T18:37:27;6.70;99.90
54824;DHT22;40724;53.196;5.980;2023-02-01T18:39:53;6.70;99.90
54824;DHT22;40724;53.196;5.980;2023-02-01T18:42:18;6.70;99.90
54824;DHT22;40724;53.196;5.980;2023-02-01T18:44:44;6.70;99.90
54824;DHT22;40724;53.196;5.980;2023-02-01T18:47:11;6.60;99.90
54824;DHT22;40724;53.196;5.980;2023-02-01T18:49:37;6.60;99.90
54824;DHT22;40724;53.196;5.980;2023-02-01T18:52:03;6.60;99.90
54824;DHT22;40724;53.196;5.980;2023-02-01T18:54:30;6.60;99.90
54824;DHT22;40724;53.196;5.980;2023-02-01T18:56:56;6.50;99.90
54824;DHT22;40724;53.196;5.980;2023-02-01T18:59:21;6.50;99.90
54824;DHT22;40724;53.196;5.980;2023-02-01T19:01:47;6.60;99.90
54824;DHT22;40724;53.196;5.980;2023-02-01T20:00:31;6.50;99.90
54824;DHT22;40724;53.196;5.980;2023-02-01T20:07:50;6.50;99.90
54824;DHT22;40724;53.196;5.980;2023-02-01T20:10:16;6.50;99.90
54824;DHT22;40724;53.196;5.980;2023-02-01T20:12:42;6.50;99.90
54824;DHT22;40724;53.196;5.980;2023-02-01T20:15:10;6.40;99.90
54824;DHT22;40724;53.196;5.980;2023-02-01T20:17:36;6.50;99.90
54824;DHT22;40724;53.196;5.980;2023-02-01T20:20:03;6.40;99.90
54824;DHT22;40724;53.196;5.980;2023-02-01T20:22:29;6.50;99.90
54824;DHT22;40724;53.196;5.980;2023-02-01T20:24:55;6.40;99.90
54824;DHT22;40724;53.196;5.980;2023-02-01T20:27:24;6.40;99.90
54824;DHT22;40724;53.196;5.980;2023-02-01T20:29:50;6.40;99.90
54824;DHT22;40724;53.196;5.980;2023-02-01T20:32:16;6.40;99.90
54824;DHT22;40724;53.196;5.980;2023-02-01T20:34:41;6.40;99.90
54824;DHT22;40724;53.196;5.980;2023-02-01T20:37:07;6.40;99.90
54824;DHT22;40724;53.196;5.980;2023-02-01T20:39:33;6.40;99.90
54824;DHT22;40724;53.196;5.980;2023-02-01T20:41:59;6.40;99.90
54824;DHT22;40724;53.196;5.980;2023-02-01T20:44:25;6.40;99.90
54824;DHT22;40724;53.196;5.980;2023-02-01T20:46:50;6.40;99.90
54824;DHT22;40724;53.196;5.980;2023-02-01T20:49:16;6.40;99.90
54824;DHT22;40724;53.196;5.980;2023-02-01T20:51:42;6.40;99.90
54824;DHT22;40724;53.196;5.980;2023-02-01T20:54:08;6.40;99.90
54824;DHT22;40724;53.196;5.980;2023-02-01T20:56:33;6.30;99.90
54824;DHT22;40724;53.196;5.980;2023-02-01T20:58:59;6.30;99.90
54824;DHT22;40724;53.196;5.980;2023-02-01T21:01:29;6.30;99.90
54824;DHT22;40724;53.196;5.980;2023-02-01T21:03:55;6.30;99.90
54824;DHT22;40724;53.196;5.980;2023-02-01T21:06:21;6.30;99.90
54824;DHT22;40724;53.196;5.980;2023-02-01T21:08:47;6.30;99.90
54824;DHT22;40724;53.196;5.980;2023-02-01T21:11:13;6.30;99.90
54824;DHT22;40724;53.196;5.980;2023-02-01T21:13:42;6.30;99.90
54824;DHT22;40724;53.196;5.980;2023-02-01T21:16:16;6.20;99.90
54824;DHT22;40724;53.196;5.980;2023-02-01T21:18:42;6.20;99.90
54824;DHT22;40724;53.196;5.980;2023-02-01T21:21:12;6.20;99.90
54824;DHT22;40724;53.196;5.980;2023-02-01T21:23:39;6.20;99.90
54824;DHT22;40724;53.196;5.980;2023-02-01T21:26:17;6.20;99.90
54824;DHT22;40724;53.196;5.980;2023-02-01T21:28:44;6.20;99.90
54824;DHT22;40724;53.196;5.980;2023-02-01T21:31:10;6.20;99.90
54824;DHT22;40724;53.196;5.980;2023-02-01T21:33:36;6.20;99.90
54824;DHT22;40724;53.196;5.980;2023-02-01T21:36:03;6.10;99.90
